Strand, South Africa
Current Conditions -  °F | °C
As of 5:00 AM on Thursday 23 Oct 2014 (Local Time) from FACT Reporting Station
Overcast Overcast  
Wind Chill: 61°   Ceiling: 600
Heat Index: 61°   Visibility: 4mi
Dew Point: 57°   Wind: 5mph
Humidity: 88%   Direction: 150°SSE
Pressure: 29.97"   Gusts: NA
Location:  34.1°S, 18.82°E
Report Text: FACT 230300Z 15004KT 120V180 7000 OVC006 16/14 Q1015 NOSIG
Loading
Personal Weather Stations






























Interactive Weather Map
Tropical Storm Tracking
New forecast layout! Learn more

10-Day Weather Forecast

Advertisements
Track Severe Weather on mobile